sensor_id;sensor_type;location;lat;lon;timestamp;P1;durP1;ratioP1;P2;durP2;ratioP2
4517;SDS011;2271;49.464;11.070;2023-01-24T00:01:26;11.87;;;7.80;;
4517;SDS011;2271;49.464;11.070;2023-01-24T00:03:52;11.20;;;7.57;;
4517;SDS011;2271;49.464;11.070;2023-01-24T00:06:18;8.90;;;7.07;;
4517;SDS011;2271;49.464;11.070;2023-01-24T00:08:43;10.30;;;7.00;;
4517;SDS011;2271;49.464;11.070;2023-01-24T00:11:10;9.97;;;7.30;;
4517;SDS011;2271;49.464;11.070;2023-01-24T00:13:37;9.23;;;5.70;;
4517;SDS011;2271;49.464;11.070;2023-01-24T00:18:33;10.23;;;7.00;;
4517;SDS011;2271;49.464;11.070;2023-01-24T00:20:59;8.97;;;5.80;;
4517;SDS011;2271;49.464;11.070;2023-01-24T00:23:29;12.47;;;7.60;;
4517;SDS011;2271;49.464;11.070;2023-01-24T00:25:55;11.13;;;6.87;;
4517;SDS011;2271;49.464;11.070;2023-01-24T00:28:20;10.67;;;7.17;;
4517;SDS011;2271;49.464;11.070;2023-01-24T00:30:46;11.47;;;7.70;;
4517;SDS011;2271;49.464;11.070;2023-01-24T00:33:11;8.67;;;6.23;;
4517;SDS011;2271;49.464;11.070;2023-01-24T00:35:37;10.70;;;6.83;;
4517;SDS011;2271;49.464;11.070;2023-01-24T00:38:03;10.00;;;6.17;;
4517;SDS011;2271;49.464;11.070;2023-01-24T00:40:28;9.13;;;6.57;;
4517;SDS011;2271;49.464;11.070;2023-01-24T00:42:54;8.90;;;6.77;;
4517;SDS011;2271;49.464;11.070;2023-01-24T00:45:19;10.47;;;6.57;;
4517;SDS011;2271;49.464;11.070;2023-01-24T00:47:45;9.53;;;6.00;;
4517;SDS011;2271;49.464;11.070;2023-01-24T00:50:11;9.40;;;6.33;;
4517;SDS011;2271;49.464;11.070;2023-01-24T00:52:37;9.80;;;6.93;;
4517;SDS011;2271;49.464;11.070;2023-01-24T00:55:02;9.67;;;6.87;;
4517;SDS011;2271;49.464;11.070;2023-01-24T00:57:28;14.50;;;7.77;;
4517;SDS011;2271;49.464;11.070;2023-01-24T00:59:54;11.77;;;7.70;;
4517;SDS011;2271;49.464;11.070;2023-01-24T01:02:19;10.70;;;6.83;;
4517;SDS011;2271;49.464;11.070;2023-01-24T01:04:45;10.73;;;7.20;;
4517;SDS011;2271;49.464;11.070;2023-01-24T01:07:10;10.63;;;6.80;;
4517;SDS011;2271;49.464;11.070;2023-01-24T01:09:36;10.03;;;5.73;;
4517;SDS011;2271;49.464;11.070;2023-01-24T01:12:02;11.73;;;7.57;;
4517;SDS011;2271;49.464;11.070;2023-01-24T01:14:27;11.67;;;7.23;;
4517;SDS011;2271;49.464;11.070;2023-01-24T01:16:53;11.40;;;7.10;;
4517;SDS011;2271;49.464;11.070;2023-01-24T01:19:19;13.33;;;7.40;;
4517;SDS011;2271;49.464;11.070;2023-01-24T01:21:44;10.10;;;6.90;;
4517;SDS011;2271;49.464;11.070;2023-01-24T01:24:10;10.07;;;6.97;;
4517;SDS011;2271;49.464;11.070;2023-01-24T01:26:36;14.27;;;8.90;;
4517;SDS011;2271;49.464;11.070;2023-01-24T01:29:01;10.33;;;6.40;;
4517;SDS011;2271;49.464;11.070;2023-01-24T01:31:27;11.50;;;7.30;;
4517;SDS011;2271;49.464;11.070;2023-01-24T01:33:53;11.40;;;7.03;;
4517;SDS011;2271;49.464;11.070;2023-01-24T01:36:19;10.77;;;7.13;;
4517;SDS011;2271;49.464;11.070;2023-01-24T01:38:44;13.67;;;7.00;;
4517;SDS011;2271;49.464;11.070;2023-01-24T01:41:13;9.97;;;7.00;;
4517;SDS011;2271;49.464;11.070;2023-01-24T01:43:39;13.03;;;7.27;;
4517;SDS011;2271;49.464;11.070;2023-01-24T01:46:25;9.80;;;6.60;;
4517;SDS011;2271;49.464;11.070;2023-01-24T01:48:53;11.10;;;7.23;;
4517;SDS011;2271;49.464;11.070;2023-01-24T01:51:27;13.30;;;7.90;;
4517;SDS011;2271;49.464;11.070;2023-01-24T01:54:03;11.43;;;6.97;;
4517;SDS011;2271;49.464;11.070;2023-01-24T01:59:05;10.03;;;6.03;;
4517;SDS011;2271;49.464;11.070;2023-01-24T02:01:37;10.80;;;6.13;;
4517;SDS011;2271;49.464;11.070;2023-01-24T02:04:07;10.33;;;6.07;;
4517;SDS011;2271;49.464;11.070;2023-01-24T02:09:47;9.93;;;6.07;;
4517;SDS011;2271;49.464;11.070;2023-01-24T02:12:19;10.13;;;6.80;;
4517;SDS011;2271;49.464;11.070;2023-01-24T02:14:46;8.87;;;5.37;;
4517;SDS011;2271;49.464;11.070;2023-01-24T02:17:41;10.40;;;6.50;;
4517;SDS011;2271;49.464;11.070;2023-01-24T02:25:39;7.03;;;5.30;;
4517;SDS011;2271;49.464;11.070;2023-01-24T02:28:24;9.23;;;5.73;;
4517;SDS011;2271;49.464;11.070;2023-01-24T02:30:51;9.03;;;5.70;;
4517;SDS011;2271;49.464;11.070;2023-01-24T02:33:18;9.30;;;6.13;;
4517;SDS011;2271;49.464;11.070;2023-01-24T02:35:45;8.13;;;6.03;;
4517;SDS011;2271;49.464;11.070;2023-01-24T02:38:22;9.47;;;6.37;;
4517;SDS011;2271;49.464;11.070;2023-01-24T02:40:50;10.23;;;5.97;;
4517;SDS011;2271;49.464;11.070;2023-01-24T02:43:20;9.27;;;6.13;;
4517;SDS011;2271;49.464;11.070;2023-01-24T02:45:48;8.77;;;5.30;;
4517;SDS011;2271;49.464;11.070;2023-01-24T02:48:14;7.43;;;4.90;;
4517;SDS011;2271;49.464;11.070;2023-01-24T02:50:39;9.80;;;6.10;;
4517;SDS011;2271;49.464;11.070;2023-01-24T02:53:30;7.20;;;5.10;;
4517;SDS011;2271;49.464;11.070;2023-01-24T02:56:00;9.90;;;5.47;;
4517;SDS011;2271;49.464;11.070;2023-01-24T02:58:46;9.33;;;5.30;;
4517;SDS011;2271;49.464;11.070;2023-01-24T03:01:12;7.73;;;4.83;;
4517;SDS011;2271;49.464;11.070;2023-01-24T03:03:45;5.47;;;4.77;;
4517;SDS011;2271;49.464;11.070;2023-01-24T03:06:12;5.73;;;4.17;;
4517;SDS011;2271;49.464;11.070;2023-01-24T03:08:39;7.23;;;4.70;;
4517;SDS011;2271;49.464;11.070;2023-01-24T03:11:05;8.17;;;6.23;;
4517;SDS011;2271;49.464;11.070;2023-01-24T03:13:32;7.53;;;5.13;;
4517;SDS011;2271;49.464;11.070;2023-01-24T03:16:17;7.50;;;5.07;;
4517;SDS011;2271;49.464;11.070;2023-01-24T03:19:02;6.57;;;4.70;;
4517;SDS011;2271;49.464;11.070;2023-01-24T03:21:47;5.77;;;4.00;;
4517;SDS011;2271;49.464;11.070;2023-01-24T03:24:32;6.70;;;4.43;;
4517;SDS011;2271;49.464;11.070;2023-01-24T03:27:16;7.43;;;4.47;;
4517;SDS011;2271;49.464;11.070;2023-01-24T03:30:01;4.47;;;4.07;;
4517;SDS011;2271;49.464;11.070;2023-01-24T03:32:45;6.60;;;4.20;;
4517;SDS011;2271;49.464;11.070;2023-01-24T03:35:29;8.97;;;5.00;;
4517;SDS011;2271;49.464;11.070;2023-01-24T03:37:55;7.43;;;4.17;;
4517;SDS011;2271;49.464;11.070;2023-01-24T03:40:39;7.17;;;4.70;;
4517;SDS011;2271;49.464;11.070;2023-01-24T03:43:05;6.33;;;4.83;;
4517;SDS011;2271;49.464;11.070;2023-01-24T03:45:32;9.97;;;5.53;;
4517;SDS011;2271;49.464;11.070;2023-01-24T03:48:00;8.33;;;5.30;;
4517;SDS011;2271;49.464;11.070;2023-01-24T03:50:31;7.93;;;5.43;;
4517;SDS011;2271;49.464;11.070;2023-01-24T03:53:17;5.70;;;4.40;;
4517;SDS011;2271;49.464;11.070;2023-01-24T03:55:43;8.67;;;4.70;;
4517;SDS011;2271;49.464;11.070;2023-01-24T03:58:10;7.57;;;4.43;;
4517;SDS011;2271;49.464;11.070;2023-01-24T04:00:37;7.30;;;4.93;;
4517;SDS011;2271;49.464;11.070;2023-01-24T04:03:03;8.30;;;4.87;;
4517;SDS011;2271;49.464;11.070;2023-01-24T04:05:29;7.00;;;4.70;;
4517;SDS011;2271;49.464;11.070;2023-01-24T04:07:56;7.87;;;5.00;;
4517;SDS011;2271;49.464;11.070;2023-01-24T04:10:22;5.53;;;4.47;;
4517;SDS011;2271;49.464;11.070;2023-01-24T04:12:48;8.23;;;5.13;;
4517;SDS011;2271;49.464;11.070;2023-01-24T04:15:18;11.23;;;5.07;;
4517;SDS011;2271;49.464;11.070;2023-01-24T04:17:46;7.33;;;4.67;;
4517;SDS011;2271;49.464;11.070;2023-01-24T04:20:12;6.90;;;4.97;;
4517;SDS011;2271;49.464;11.070;2023-01-24T04:22:38;6.17;;;4.40;;
4517;SDS011;2271;49.464;11.070;2023-01-24T04:25:04;5.23;;;4.23;;
4517;SDS011;2271;49.464;11.070;2023-01-24T04:27:31;7.10;;;4.57;;
4517;SDS011;2271;49.464;11.070;2023-01-24T04:29:56;7.97;;;4.47;;
4517;SDS011;2271;49.464;11.070;2023-01-24T04:32:22;5.97;;;4.20;;
4517;SDS011;2271;49.464;11.070;2023-01-24T04:34:47;4.43;;;3.60;;
4517;SDS011;2271;49.464;11.070;2023-01-24T04:37:13;7.20;;;4.27;;
4517;SDS011;2271;49.464;11.070;2023-01-24T04:39:39;6.93;;;4.03;;
4517;SDS011;2271;49.464;11.070;2023-01-24T04:42:04;6.50;;;4.07;;
4517;SDS011;2271;49.464;11.070;2023-01-24T04:44:31;5.37;;;3.83;;
4517;SDS011;2271;49.464;11.070;2023-01-24T04:46:57;5.93;;;4.17;;
4517;SDS011;2271;49.464;11.070;2023-01-24T04:49:22;4.97;;;3.93;;
4517;SDS011;2271;49.464;11.070;2023-01-24T04:51:49;5.47;;;3.73;;
4517;SDS011;2271;49.464;11.070;2023-01-24T04:54:15;5.87;;;3.80;;
4517;SDS011;2271;49.464;11.070;2023-01-24T04:56:41;5.13;;;3.60;;
4517;SDS011;2271;49.464;11.070;2023-01-24T04:59:07;5.07;;;3.43;;
4517;SDS011;2271;49.464;11.070;2023-01-24T05:01:35;4.87;;;3.90;;
4517;SDS011;2271;49.464;11.070;2023-01-24T05:04:00;7.97;;;3.83;;
4517;SDS011;2271;49.464;11.070;2023-01-24T05:06:26;6.93;;;3.87;;
4517;SDS011;2271;49.464;11.070;2023-01-24T05:08:54;5.37;;;3.60;;
4517;SDS011;2271;49.464;11.070;2023-01-24T05:11:20;6.80;;;3.70;;
4517;SDS011;2271;49.464;11.070;2023-01-24T05:13:47;5.20;;;3.90;;
4517;SDS011;2271;49.464;11.070;2023-01-24T05:16:13;6.13;;;3.80;;
4517;SDS011;2271;49.464;11.070;2023-01-24T05:18:38;5.60;;;4.00;;
4517;SDS011;2271;49.464;11.070;2023-01-24T05:21:08;4.40;;;3.30;;
4517;SDS011;2271;49.464;11.070;2023-01-24T05:23:35;5.93;;;3.93;;
4517;SDS011;2271;49.464;11.070;2023-01-24T05:26:01;4.43;;;3.57;;
4517;SDS011;2271;49.464;11.070;2023-01-24T05:28:27;4.30;;;3.50;;
4517;SDS011;2271;49.464;11.070;2023-01-24T05:30:57;5.57;;;3.47;;
4517;SDS011;2271;49.464;11.070;2023-01-24T05:33:26;5.33;;;3.60;;
4517;SDS011;2271;49.464;11.070;2023-01-24T05:35:58;3.90;;;3.07;;
4517;SDS011;2271;49.464;11.070;2023-01-24T05:38:29;4.90;;;3.63;;
4517;SDS011;2271;49.464;11.070;2023-01-24T05:40:58;5.33;;;3.57;;
4517;SDS011;2271;49.464;11.070;2023-01-24T05:43:25;4.87;;;3.60;;
4517;SDS011;2271;49.464;11.070;2023-01-24T05:45:50;4.20;;;3.50;;
4517;SDS011;2271;49.464;11.070;2023-01-24T05:48:16;5.63;;;3.53;;
4517;SDS011;2271;49.464;11.070;2023-01-24T05:50:41;5.27;;;2.80;;
4517;SDS011;2271;49.464;11.070;2023-01-24T05:53:07;3.87;;;3.43;;
4517;SDS011;2271;49.464;11.070;2023-01-24T05:55:33;4.70;;;3.20;;
4517;SDS011;2271;49.464;11.070;2023-01-24T05:57:58;3.47;;;3.00;;
4517;SDS011;2271;49.464;11.070;2023-01-24T06:00:25;3.37;;;2.60;;
4517;SDS011;2271;49.464;11.070;2023-01-24T06:02:50;4.07;;;3.17;;
4517;SDS011;2271;49.464;11.070;2023-01-24T06:05:16;3.83;;;2.80;;
4517;SDS011;2271;49.464;11.070;2023-01-24T06:07:42;4.20;;;3.33;;
4517;SDS011;2271;49.464;11.070;2023-01-24T06:10:07;4.27;;;3.50;;
4517;SDS011;2271;49.464;11.070;2023-01-24T06:12:34;3.93;;;2.90;;
4517;SDS011;2271;49.464;11.070;2023-01-24T06:14:59;6.47;;;3.30;;
4517;SDS011;2271;49.464;11.070;2023-01-24T06:17:25;4.27;;;3.20;;
4517;SDS011;2271;49.464;11.070;2023-01-24T06:19:50;3.50;;;2.80;;
4517;SDS011;2271;49.464;11.070;2023-01-24T06:22:28;3.67;;;2.80;;
4517;SDS011;2271;49.464;11.070;2023-01-24T06:24:57;3.83;;;2.97;;
4517;SDS011;2271;49.464;11.070;2023-01-24T06:27:22;4.17;;;3.60;;
4517;SDS011;2271;49.464;11.070;2023-01-24T06:29:48;3.57;;;2.90;;
4517;SDS011;2271;49.464;11.070;2023-01-24T06:35:07;3.53;;;2.60;;
4517;SDS011;2271;49.464;11.070;2023-01-24T06:40:10;4.90;;;3.73;;
4517;SDS011;2271;49.464;11.070;2023-01-24T06:42:37;3.50;;;2.80;;
4517;SDS011;2271;49.464;11.070;2023-01-24T06:45:03;4.37;;;3.37;;
4517;SDS011;2271;49.464;11.070;2023-01-24T06:47:30;4.10;;;3.00;;
4517;SDS011;2271;49.464;11.070;2023-01-24T06:49:56;4.13;;;3.03;;
4517;SDS011;2271;49.464;11.070;2023-01-24T06:52:21;3.70;;;2.70;;
4517;SDS011;2271;49.464;11.070;2023-01-24T06:54:47;5.10;;;3.40;;
4517;SDS011;2271;49.464;11.070;2023-01-24T06:57:13;3.30;;;3.00;;
4517;SDS011;2271;49.464;11.070;2023-01-24T06:59:38;4.23;;;2.83;;
4517;SDS011;2271;49.464;11.070;2023-01-24T07:02:04;3.20;;;2.80;;
4517;SDS011;2271;49.464;11.070;2023-01-24T07:04:30;4.27;;;3.03;;
4517;SDS011;2271;49.464;11.070;2023-01-24T07:06:56;3.10;;;2.80;;
4517;SDS011;2271;49.464;11.070;2023-01-24T07:09:22;4.83;;;3.17;;
4517;SDS011;2271;49.464;11.070;2023-01-24T07:11:48;3.53;;;3.10;;
4517;SDS011;2271;49.464;11.070;2023-01-24T07:14:17;3.40;;;2.90;;
4517;SDS011;2271;49.464;11.070;2023-01-24T07:16:43;4.10;;;3.20;;
4517;SDS011;2271;49.464;11.070;2023-01-24T07:19:13;4.13;;;3.30;;
4517;SDS011;2271;49.464;11.070;2023-01-24T07:21:40;5.83;;;3.87;;
4517;SDS011;2271;49.464;11.070;2023-01-24T07:24:11;4.70;;;3.23;;
4517;SDS011;2271;49.464;11.070;2023-01-24T07:26:39;7.83;;;4.40;;
4517;SDS011;2271;49.464;11.070;2023-01-24T07:29:04;3.90;;;3.37;;
4517;SDS011;2271;49.464;11.070;2023-01-24T07:31:30;3.70;;;3.07;;
4517;SDS011;2271;49.464;11.070;2023-01-24T07:33:56;3.80;;;3.30;;
4517;SDS011;2271;49.464;11.070;2023-01-24T07:36:21;3.40;;;3.10;;
4517;SDS011;2271;49.464;11.070;2023-01-24T07:38:47;3.67;;;3.10;;
4517;SDS011;2271;49.464;11.070;2023-01-24T07:41:12;4.87;;;3.77;;
4517;SDS011;2271;49.464;11.070;2023-01-24T07:43:38;5.60;;;3.17;;
4517;SDS011;2271;49.464;11.070;2023-01-24T07:46:04;4.00;;;2.93;;
4517;SDS011;2271;49.464;11.070;2023-01-24T07:48:30;4.27;;;3.37;;
4517;SDS011;2271;49.464;11.070;2023-01-24T07:50:59;7.50;;;3.50;;
4517;SDS011;2271;49.464;11.070;2023-01-24T07:53:25;5.53;;;4.13;;
4517;SDS011;2271;49.464;11.070;2023-01-24T07:55:50;5.03;;;3.50;;
4517;SDS011;2271;49.464;11.070;2023-01-24T07:58:16;3.43;;;3.07;;
4517;SDS011;2271;49.464;11.070;2023-01-24T08:00:42;4.23;;;3.23;;
4517;SDS011;2271;49.464;11.070;2023-01-24T08:03:09;4.63;;;3.27;;
4517;SDS011;2271;49.464;11.070;2023-01-24T08:05:38;3.90;;;3.47;;
4517;SDS011;2271;49.464;11.070;2023-01-24T08:08:04;4.67;;;3.47;;
4517;SDS011;2271;49.464;11.070;2023-01-24T08:10:30;4.10;;;3.03;;
4517;SDS011;2271;49.464;11.070;2023-01-24T08:12:56;4.43;;;2.77;;
4517;SDS011;2271;49.464;11.070;2023-01-24T08:15:22;5.87;;;3.43;;
4517;SDS011;2271;49.464;11.070;2023-01-24T08:17:48;4.40;;;2.90;;
4517;SDS011;2271;49.464;11.070;2023-01-24T08:20:14;3.90;;;2.97;;
4517;SDS011;2271;49.464;11.070;2023-01-24T08:22:40;3.33;;;2.90;;
4517;SDS011;2271;49.464;11.070;2023-01-24T08:25:07;3.57;;;3.10;;
4517;SDS011;2271;49.464;11.070;2023-01-24T08:27:33;4.33;;;3.27;;
4517;SDS011;2271;49.464;11.070;2023-01-24T08:29:59;4.53;;;3.00;;
4517;SDS011;2271;49.464;11.070;2023-01-24T08:32:25;3.70;;;3.40;;
4517;SDS011;2271;49.464;11.070;2023-01-24T08:34:50;4.43;;;3.10;;
4517;SDS011;2271;49.464;11.070;2023-01-24T08:37:16;5.63;;;3.63;;
4517;SDS011;2271;49.464;11.070;2023-01-24T08:39:42;4.27;;;3.13;;
4517;SDS011;2271;49.464;11.070;2023-01-24T08:42:08;7.83;;;4.13;;
4517;SDS011;2271;49.464;11.070;2023-01-24T08:44:34;4.80;;;3.40;;
4517;SDS011;2271;49.464;11.070;2023-01-24T08:47:00;7.30;;;4.03;;
4517;SDS011;2271;49.464;11.070;2023-01-24T08:49:25;8.30;;;4.10;;
4517;SDS011;2271;49.464;11.070;2023-01-24T08:51:51;9.43;;;4.60;;
4517;SDS011;2271;49.464;11.070;2023-01-24T08:54:24;4.77;;;3.87;;
4517;SDS011;2271;49.464;11.070;2023-01-24T08:56:53;6.90;;;3.73;;
4517;SDS011;2271;49.464;11.070;2023-01-24T08:59:19;4.00;;;3.60;;
4517;SDS011;2271;49.464;11.070;2023-01-24T09:01:45;3.83;;;3.07;;
4517;SDS011;2271;49.464;11.070;2023-01-24T09:04:10;5.93;;;4.10;;
4517;SDS011;2271;49.464;11.070;2023-01-24T09:06:36;5.63;;;3.47;;
4517;SDS011;2271;49.464;11.070;2023-01-24T09:09:02;5.77;;;3.47;;
4517;SDS011;2271;49.464;11.070;2023-01-24T09:11:29;5.40;;;3.60;;
4517;SDS011;2271;49.464;11.070;2023-01-24T09:13:55;4.13;;;3.20;;
4517;SDS011;2271;49.464;11.070;2023-01-24T09:16:20;5.20;;;3.70;;
4517;SDS011;2271;49.464;11.070;2023-01-24T09:18:46;4.50;;;3.40;;
4517;SDS011;2271;49.464;11.070;2023-01-24T09:21:12;6.23;;;4.13;;
4517;SDS011;2271;49.464;11.070;2023-01-24T09:23:37;5.10;;;3.43;;
4517;SDS011;2271;49.464;11.070;2023-01-24T09:26:03;5.17;;;3.80;;
4517;SDS011;2271;49.464;11.070;2023-01-24T09:28:29;5.73;;;4.17;;
4517;SDS011;2271;49.464;11.070;2023-01-24T09:30:54;6.30;;;4.00;;
4517;SDS011;2271;49.464;11.070;2023-01-24T09:33:20;5.63;;;4.23;;
4517;SDS011;2271;49.464;11.070;2023-01-24T09:35:53;4.63;;;3.63;;
4517;SDS011;2271;49.464;11.070;2023-01-24T09:38:21;4.67;;;3.00;;
4517;SDS011;2271;49.464;11.070;2023-01-24T09:46:13;4.57;;;3.57;;
4517;SDS011;2271;49.464;11.070;2023-01-24T09:51:33;6.53;;;4.33;;
4517;SDS011;2271;49.464;11.070;2023-01-24T09:54:03;4.70;;;4.20;;
4517;SDS011;2271;49.464;11.070;2023-01-24T09:56:41;4.80;;;3.90;;
4517;SDS011;2271;49.464;11.070;2023-01-24T09:59:28;4.13;;;3.33;;
4517;SDS011;2271;49.464;11.070;2023-01-24T10:02:16;4.17;;;2.93;;
4517;SDS011;2271;49.464;11.070;2023-01-24T10:04:45;4.90;;;3.63;;
4517;SDS011;2271;49.464;11.070;2023-01-24T10:07:20;5.57;;;3.47;;
4517;SDS011;2271;49.464;11.070;2023-01-24T10:12:40;5.03;;;4.00;;
4517;SDS011;2271;49.464;11.070;2023-01-24T10:18:10;6.33;;;4.10;;
4517;SDS011;2271;49.464;11.070;2023-01-24T10:21:54;6.10;;;3.73;;
4517;SDS011;2271;49.464;11.070;2023-01-24T10:23:51;4.47;;;3.40;;
4517;SDS011;2271;49.464;11.070;2023-01-24T10:28:59;5.80;;;3.83;;
4517;SDS011;2271;49.464;11.070;2023-01-24T10:31:42;5.03;;;3.67;;
4517;SDS011;2271;49.464;11.070;2023-01-24T10:34:19;5.53;;;4.00;;
4517;SDS011;2271;49.464;11.070;2023-01-24T10:39:33;5.10;;;3.73;;
4517;SDS011;2271;49.464;11.070;2023-01-24T10:41:59;5.50;;;4.33;;
4517;SDS011;2271;49.464;11.070;2023-01-24T10:49:40;5.97;;;4.07;;
4517;SDS011;2271;49.464;11.070;2023-01-24T10:55:21;7.93;;;5.50;;
4517;SDS011;2271;49.464;11.070;2023-01-24T11:02:47;6.73;;;3.73;;
4517;SDS011;2271;49.464;11.070;2023-01-24T11:05:15;6.40;;;4.07;;
4517;SDS011;2271;49.464;11.070;2023-01-24T11:07:47;6.87;;;4.80;;
4517;SDS011;2271;49.464;11.070;2023-01-24T11:10:27;6.20;;;4.20;;
4517;SDS011;2271;49.464;11.070;2023-01-24T11:13:00;6.13;;;4.67;;
4517;SDS011;2271;49.464;11.070;2023-01-24T11:15:32;7.77;;;4.07;;
4517;SDS011;2271;49.464;11.070;2023-01-24T11:17:59;7.63;;;4.67;;
4517;SDS011;2271;49.464;11.070;2023-01-24T11:20:52;5.93;;;4.27;;
4517;SDS011;2271;49.464;11.070;2023-01-24T11:23:35;4.30;;;3.50;;
4517;SDS011;2271;49.464;11.070;2023-01-24T11:26:02;6.97;;;4.60;;
4517;SDS011;2271;49.464;11.070;2023-01-24T11:28:33;8.23;;;5.50;;
4517;SDS011;2271;49.464;11.070;2023-01-24T11:31:05;5.07;;;4.17;;
4517;SDS011;2271;49.464;11.070;2023-01-24T11:33:54;4.90;;;3.73;;
4517;SDS011;2271;49.464;11.070;2023-01-24T11:41:54;6.03;;;4.20;;
4517;SDS011;2271;49.464;11.070;2023-01-24T11:47:09;6.53;;;4.40;;
4517;SDS011;2271;49.464;11.070;2023-01-24T11:49:46;6.03;;;4.97;;
4517;SDS011;2271;49.464;11.070;2023-01-24T12:03:38;7.80;;;5.13;;
4517;SDS011;2271;49.464;11.070;2023-01-24T12:18:15;7.07;;;4.57;;
4517;SDS011;2271;49.464;11.070;2023-01-24T12:20:33;7.53;;;5.17;;
4517;SDS011;2271;49.464;11.070;2023-01-24T12:23:24;10.57;;;4.90;;
4517;SDS011;2271;49.464;11.070;2023-01-24T12:26:02;9.00;;;5.67;;
4517;SDS011;2271;49.464;11.070;2023-01-24T12:28:39;5.97;;;4.70;;
4517;SDS011;2271;49.464;11.070;2023-01-24T12:31:18;8.07;;;5.33;;
4517;SDS011;2271;49.464;11.070;2023-01-24T12:33:56;5.80;;;4.53;;
4517;SDS011;2271;49.464;11.070;2023-01-24T12:39:11;6.07;;;4.67;;
4517;SDS011;2271;49.464;11.070;2023-01-24T12:41:43;5.60;;;4.43;;
4517;SDS011;2271;49.464;11.070;2023-01-24T12:44:29;11.77;;;4.90;;
4517;SDS011;2271;49.464;11.070;2023-01-24T12:47:11;7.80;;;5.67;;
4517;SDS011;2271;49.464;11.070;2023-01-24T12:52:59;6.70;;;4.97;;
4517;SDS011;2271;49.464;11.070;2023-01-24T12:55:37;10.80;;;4.37;;
4517;SDS011;2271;49.464;11.070;2023-01-24T12:58:16;6.23;;;4.80;;
4517;SDS011;2271;49.464;11.070;2023-01-24T13:06:19;12.63;;;4.10;;
4517;SDS011;2271;49.464;11.070;2023-01-24T13:09:07;7.80;;;5.20;;
4517;SDS011;2271;49.464;11.070;2023-01-24T13:11:48;6.70;;;5.00;;
4517;SDS011;2271;49.464;11.070;2023-01-24T13:24:45;7.07;;;5.47;;
4517;SDS011;2271;49.464;11.070;2023-01-24T13:27:29;8.07;;;4.70;;
4517;SDS011;2271;49.464;11.070;2023-01-24T13:30:19;6.33;;;4.63;;
4517;SDS011;2271;49.464;11.070;2023-01-24T13:32:49;10.63;;;5.00;;
4517;SDS011;2271;49.464;11.070;2023-01-24T13:35:22;7.57;;;5.17;;
4517;SDS011;2271;49.464;11.070;2023-01-24T13:46:16;7.80;;;5.33;;
4517;SDS011;2271;49.464;11.070;2023-01-24T13:51:22;6.27;;;4.67;;
4517;SDS011;2271;49.464;11.070;2023-01-24T13:54:00;9.20;;;5.13;;
4517;SDS011;2271;49.464;11.070;2023-01-24T13:56:31;5.33;;;3.77;;
4517;SDS011;2271;49.464;11.070;2023-01-24T13:59:16;7.73;;;5.10;;
4517;SDS011;2271;49.464;11.070;2023-01-24T14:01:45;8.40;;;5.43;;
4517;SDS011;2271;49.464;11.070;2023-01-24T14:04:11;7.73;;;5.17;;
4517;SDS011;2271;49.464;11.070;2023-01-24T14:06:40;6.73;;;4.60;;
4517;SDS011;2271;49.464;11.070;2023-01-24T14:09:12;4.73;;;4.23;;
4517;SDS011;2271;49.464;11.070;2023-01-24T14:11:38;7.90;;;5.50;;
4517;SDS011;2271;49.464;11.070;2023-01-24T14:14:26;8.30;;;5.57;;
4517;SDS011;2271;49.464;11.070;2023-01-24T14:17:56;6.37;;;5.00;;
4517;SDS011;2271;49.464;11.070;2023-01-24T14:22:59;7.90;;;5.37;;
4517;SDS011;2271;49.464;11.070;2023-01-24T14:28:13;6.00;;;4.60;;
4517;SDS011;2271;49.464;11.070;2023-01-24T14:30:45;6.73;;;4.87;;
4517;SDS011;2271;49.464;11.070;2023-01-24T14:33:25;10.77;;;5.60;;
4517;SDS011;2271;49.464;11.070;2023-01-24T14:38:34;9.10;;;5.73;;
4517;SDS011;2271;49.464;11.070;2023-01-24T14:40:59;10.33;;;5.67;;
4517;SDS011;2271;49.464;11.070;2023-01-24T14:43:37;7.10;;;5.70;;
4517;SDS011;2271;49.464;11.070;2023-01-24T14:46:16;8.73;;;5.70;;
4517;SDS011;2271;49.464;11.070;2023-01-24T14:48:46;13.70;;;6.07;;
4517;SDS011;2271;49.464;11.070;2023-01-24T14:51:14;9.57;;;6.23;;
4517;SDS011;2271;49.464;11.070;2023-01-24T14:53:45;9.57;;;5.53;;
4517;SDS011;2271;49.464;11.070;2023-01-24T14:56:16;8.63;;;6.27;;
4517;SDS011;2271;49.464;11.070;2023-01-24T14:58:42;10.00;;;6.47;;
4517;SDS011;2271;49.464;11.070;2023-01-24T15:04:04;9.27;;;6.27;;
4517;SDS011;2271;49.464;11.070;2023-01-24T15:06:30;7.03;;;5.73;;
4517;SDS011;2271;49.464;11.070;2023-01-24T15:08:59;7.77;;;5.77;;
4517;SDS011;2271;49.464;11.070;2023-01-24T15:11:27;9.43;;;6.17;;
4517;SDS011;2271;49.464;11.070;2023-01-24T15:13:59;9.67;;;6.47;;
4517;SDS011;2271;49.464;11.070;2023-01-24T15:16:38;11.57;;;6.53;;
4517;SDS011;2271;49.464;11.070;2023-01-24T15:21:43;8.90;;;6.80;;
4517;SDS011;2271;49.464;11.070;2023-01-24T15:24:18;10.83;;;6.20;;
4517;SDS011;2271;49.464;11.070;2023-01-24T15:26:49;7.47;;;6.17;;
4517;SDS011;2271;49.464;11.070;2023-01-24T15:34:51;9.53;;;5.83;;
4517;SDS011;2271;49.464;11.070;2023-01-24T15:37:17;7.43;;;5.60;;
4517;SDS011;2271;49.464;11.070;2023-01-24T15:39:42;8.70;;;5.90;;
4517;SDS011;2271;49.464;11.070;2023-01-24T15:42:15;8.17;;;5.77;;
4517;SDS011;2271;49.464;11.070;2023-01-24T15:45:02;7.60;;;5.50;;
4517;SDS011;2271;49.464;11.070;2023-01-24T15:47:28;10.80;;;6.73;;
4517;SDS011;2271;49.464;11.070;2023-01-24T15:55:52;10.23;;;5.80;;
4517;SDS011;2271;49.464;11.070;2023-01-24T15:58:19;8.20;;;6.03;;
4517;SDS011;2271;49.464;11.070;2023-01-24T16:00:56;9.20;;;6.10;;
4517;SDS011;2271;49.464;11.070;2023-01-24T16:03:23;7.53;;;5.93;;
4517;SDS011;2271;49.464;11.070;2023-01-24T16:05:48;6.93;;;5.43;;
4517;SDS011;2271;49.464;11.070;2023-01-24T16:08:14;7.13;;;6.03;;
4517;SDS011;2271;49.464;11.070;2023-01-24T16:10:40;9.77;;;7.13;;
4517;SDS011;2271;49.464;11.070;2023-01-24T16:13:11;10.37;;;6.70;;
4517;SDS011;2271;49.464;11.070;2023-01-24T16:15:49;8.57;;;6.00;;
4517;SDS011;2271;49.464;11.070;2023-01-24T16:18:15;8.63;;;6.20;;
4517;SDS011;2271;49.464;11.070;2023-01-24T16:20:41;11.30;;;6.63;;
4517;SDS011;2271;49.464;11.070;2023-01-24T16:23:06;9.43;;;5.83;;
4517;SDS011;2271;49.464;11.070;2023-01-24T16:25:32;10.03;;;6.67;;
4517;SDS011;2271;49.464;11.070;2023-01-24T16:27:59;9.37;;;5.77;;
4517;SDS011;2271;49.464;11.070;2023-01-24T16:30:25;9.27;;;6.30;;
4517;SDS011;2271;49.464;11.070;2023-01-24T16:32:52;8.70;;;6.47;;
4517;SDS011;2271;49.464;11.070;2023-01-24T16:35:19;11.90;;;7.23;;
4517;SDS011;2271;49.464;11.070;2023-01-24T16:37:44;11.33;;;6.43;;
4517;SDS011;2271;49.464;11.070;2023-01-24T16:40:11;9.33;;;6.53;;
4517;SDS011;2271;49.464;11.070;2023-01-24T16:42:38;8.60;;;6.20;;
4517;SDS011;2271;49.464;11.070;2023-01-24T16:45:08;8.73;;;6.30;;
4517;SDS011;2271;49.464;11.070;2023-01-24T16:47:33;8.60;;;6.43;;
4517;SDS011;2271;49.464;11.070;2023-01-24T16:49:59;10.43;;;6.60;;
4517;SDS011;2271;49.464;11.070;2023-01-24T16:52:25;9.43;;;6.87;;
4517;SDS011;2271;49.464;11.070;2023-01-24T16:54:51;9.70;;;5.50;;
4517;SDS011;2271;49.464;11.070;2023-01-24T16:57:17;11.40;;;6.50;;
4517;SDS011;2271;49.464;11.070;2023-01-24T16:59:43;12.27;;;7.17;;
4517;SDS011;2271;49.464;11.070;2023-01-24T17:02:11;10.07;;;6.57;;
4517;SDS011;2271;49.464;11.070;2023-01-24T17:04:37;12.27;;;6.87;;
4517;SDS011;2271;49.464;11.070;2023-01-24T17:07:02;11.03;;;7.90;;
4517;SDS011;2271;49.464;11.070;2023-01-24T17:09:29;11.47;;;7.10;;
4517;SDS011;2271;49.464;11.070;2023-01-24T17:11:55;13.90;;;7.40;;
4517;SDS011;2271;49.464;11.070;2023-01-24T17:14:20;13.37;;;8.00;;
4517;SDS011;2271;49.464;11.070;2023-01-24T17:16:47;9.80;;;6.33;;
4517;SDS011;2271;49.464;11.070;2023-01-24T17:19:13;8.10;;;5.80;;
4517;SDS011;2271;49.464;11.070;2023-01-24T17:21:39;8.10;;;6.23;;
4517;SDS011;2271;49.464;11.070;2023-01-24T17:24:05;10.40;;;6.63;;
4517;SDS011;2271;49.464;11.070;2023-01-24T17:26:31;9.57;;;6.73;;
4517;SDS011;2271;49.464;11.070;2023-01-24T17:28:56;9.93;;;6.93;;
4517;SDS011;2271;49.464;11.070;2023-01-24T17:31:22;10.53;;;7.63;;
4517;SDS011;2271;49.464;11.070;2023-01-24T17:33:48;9.03;;;6.73;;